createdAt,value
2023-05-08T00:01:08.216Z,66.66
2023-05-08T00:03:35.042Z,66.50
2023-05-08T00:06:05.721Z,66.83
2023-05-08T00:08:32.773Z,66.90
2023-05-08T00:10:59.234Z,67.03
2023-05-08T00:13:25.848Z,66.55
2023-05-08T00:15:52.508Z,66.32
2023-05-08T00:18:18.993Z,66.67
2023-05-08T00:20:45.480Z,67.06
2023-05-08T00:23:11.937Z,66.89
2023-05-08T00:25:38.855Z,67.02
2023-05-08T00:28:05.370Z,67.42
2023-05-08T00:30:31.839Z,67.26
2023-05-08T00:32:58.351Z,67.07
2023-05-08T00:35:24.879Z,67.42
2023-05-08T00:37:51.411Z,67.99
2023-05-08T00:40:17.931Z,67.96
2023-05-08T00:42:44.379Z,68.01
2023-05-08T00:45:11.257Z,67.55
2023-05-08T00:47:38.696Z,67.35
2023-05-08T00:50:06.016Z,67.36
2023-05-08T00:52:33.880Z,67.45
2023-05-08T00:55:08.088Z,67.02
2023-05-08T00:57:36.039Z,67.08
2023-05-08T01:00:05.393Z,66.66
2023-05-08T01:02:32.761Z,66.77
2023-05-08T01:05:00.110Z,66.70
2023-05-08T01:07:27.795Z,66.94
2023-05-08T01:09:54.318Z,66.99
2023-05-08T01:12:36.165Z,66.74
2023-05-08T01:15:17.258Z,66.31
2023-05-08T01:18:15.751Z,66.27
2023-05-08T01:21:03.876Z,66.58
2023-05-08T01:24:16.987Z,66.67
2023-05-08T01:27:17.499Z,66.26
2023-05-08T01:30:19.352Z,66.26
2023-05-08T01:33:01.656Z,66.31
2023-05-08T01:35:49.726Z,65.81
2023-05-08T01:38:48.432Z,66.27
2023-05-08T01:41:29.975Z,66.25
2023-05-08T01:44:34.484Z,66.40
2023-05-08T01:47:09.658Z,66.23
2023-05-08T01:49:46.056Z,66.31
2023-05-08T01:52:34.415Z,66.96
2023-05-08T01:55:17.695Z,66.75
2023-05-08T01:57:51.661Z,66.80
2023-05-08T02:00:23.672Z,66.55
2023-05-08T02:02:52.404Z,66.87
2023-05-08T02:05:22.446Z,66.72
2023-05-08T02:07:51.679Z,66.69
2023-05-08T02:10:22.368Z,66.28
2023-05-08T02:12:50.296Z,66.63
2023-05-08T02:15:25.204Z,66.71
2023-05-08T02:17:57.544Z,67.14
2023-05-08T02:20:33.306Z,66.85
2023-05-08T02:23:02.098Z,66.78
2023-05-08T02:25:31.020Z,66.89
2023-05-08T02:27:58.989Z,67.00
2023-05-08T02:30:28.666Z,67.16
2023-05-08T02:33:00.628Z,67.02
2023-05-08T02:35:30.808Z,67.17
2023-05-08T02:37:58.564Z,66.83
2023-05-08T02:40:32.455Z,66.84
2023-05-08T02:42:59.246Z,66.58
2023-05-08T02:45:36.857Z,66.69
2023-05-08T02:48:26.271Z,67.45
2023-05-08T02:51:21.763Z,67.64
2023-05-08T02:54:10.064Z,67.58
2023-05-08T02:56:43.979Z,67.35
2023-05-08T02:59:20.366Z,67.38
2023-05-08T03:01:58.932Z,66.99
2023-05-08T03:04:37.695Z,67.28
2023-05-08T03:07:06.247Z,67.21
2023-05-08T03:09:44.429Z,66.97
2023-05-08T03:12:20.558Z,67.07
2023-05-08T03:15:00.191Z,66.86
2023-05-08T03:17:32.415Z,67.26
2023-05-08T03:20:08.047Z,67.20
2023-05-08T03:22:38.163Z,67.29
2023-05-08T03:25:11.234Z,67.08
2023-05-08T03:27:40.592Z,67.91
2023-05-08T03:30:09.676Z,67.91
2023-05-08T03:32:37.704Z,67.57
2023-05-08T03:35:06.924Z,67.61
2023-05-08T03:37:33.597Z,67.67
2023-05-08T03:40:00.239Z,67.90
2023-05-08T03:42:27.592Z,67.59
2023-05-08T03:44:57.648Z,68.16
2023-05-08T03:47:31.093Z,67.94
2023-05-08T03:49:58.825Z,67.62
2023-05-08T03:52:25.984Z,67.68
2023-05-08T03:54:52.560Z,67.22
2023-05-08T03:57:19.199Z,67.48
2023-05-08T04:00:06.406Z,67.55
2023-05-08T04:02:42.958Z,67.70
2023-05-08T04:05:37.561Z,69.60
2023-05-08T04:08:19.733Z,68.69
2023-05-08T04:11:30.109Z,69.08
2023-05-08T04:14:06.953Z,68.40
2023-05-08T04:16:43.665Z,68.39
2023-05-08T04:19:22.963Z,68.55
2023-05-08T04:21:51.536Z,68.31
2023-05-08T04:24:29.004Z,68.56
2023-05-08T04:27:00.346Z,67.98
2023-05-08T04:29:27.268Z,68.13
2023-05-08T04:31:55.798Z,68.08
2023-05-08T04:34:28.988Z,68.06
2023-05-08T04:36:55.607Z,68.50
2023-05-08T04:39:25.206Z,68.26
2023-05-08T04:41:52.638Z,68.40
2023-05-08T04:44:20.404Z,68.33
2023-05-08T04:46:46.901Z,68.15
2023-05-08T04:49:13.439Z,67.98
2023-05-08T04:51:39.900Z,67.97
2023-05-08T04:54:06.333Z,67.85
2023-05-08T04:56:32.780Z,67.75
2023-05-08T04:58:59.300Z,67.74
2023-05-08T05:01:25.942Z,67.46
2023-05-08T05:03:52.680Z,67.38
2023-05-08T05:06:19.259Z,66.84
2023-05-08T05:08:45.842Z,66.87
2023-05-08T05:11:12.340Z,66.72
2023-05-08T05:13:38.848Z,66.53
2023-05-08T05:16:05.795Z,66.83
2023-05-08T05:18:32.330Z,66.78
2023-05-08T05:20:59.213Z,66.64
2023-05-08T05:23:25.716Z,66.99
2023-05-08T05:25:52.238Z,66.69
2023-05-08T05:28:18.748Z,66.55
2023-05-08T05:30:48.392Z,67.15
2023-05-08T05:33:15.163Z,67.53
2023-05-08T05:35:41.648Z,67.76
2023-05-08T05:38:08.104Z,67.53
2023-05-08T05:40:34.658Z,67.27
2023-05-08T05:43:01.126Z,67.16
2023-05-08T05:45:27.621Z,66.94
2023-05-08T05:47:54.374Z,67.18
2023-05-08T05:50:22.474Z,66.97
2023-05-08T05:52:49.187Z,66.69
2023-05-08T05:55:16.236Z,66.73
2023-05-08T05:57:42.855Z,66.89
2023-05-08T06:00:11.258Z,66.95
2023-05-08T06:02:38.195Z,66.72
2023-05-08T06:05:05.246Z,66.80
2023-05-08T06:07:31.773Z,66.51
2023-05-08T06:09:58.263Z,66.28
2023-05-08T06:12:25.425Z,66.06
2023-05-08T06:14:52.616Z,66.20
2023-05-08T06:17:19.176Z,66.35
2023-05-08T06:19:54.029Z,65.78
2023-05-08T06:22:24.091Z,65.69
2023-05-08T06:24:54.916Z,65.83
2023-05-08T06:27:22.507Z,66.36
2023-05-08T06:29:52.891Z,65.88
2023-05-08T06:32:20.617Z,66.45
2023-05-08T06:34:47.567Z,66.09
2023-05-08T06:37:14.244Z,65.81
2023-05-08T06:39:40.881Z,66.45
2023-05-08T06:42:08.119Z,66.06
2023-05-08T06:44:35.831Z,65.19
2023-05-08T06:47:02.739Z,64.80
2023-05-08T06:49:29.513Z,64.51
2023-05-08T06:51:57.987Z,64.93
2023-05-08T06:54:24.857Z,65.25
2023-05-08T06:56:54.224Z,65.13
2023-05-08T06:59:23.205Z,65.34
2023-05-08T07:01:50.568Z,65.34
2023-05-08T07:04:17.347Z,65.56
2023-05-08T07:06:43.909Z,65.31
2023-05-08T07:09:12.144Z,65.17
2023-05-08T07:11:38.740Z,64.80
2023-05-08T07:14:05.299Z,64.88
2023-05-08T07:16:32.076Z,64.96
2023-05-08T07:18:58.755Z,65.06
2023-05-08T07:21:25.332Z,65.26
2023-05-08T07:23:53.698Z,65.29
2023-05-08T07:26:21.448Z,64.94
2023-05-08T07:28:48.725Z,65.42
2023-05-08T07:31:15.426Z,65.38
2023-05-08T07:33:42.244Z,65.78
2023-05-08T07:36:08.859Z,65.45
2023-05-08T07:38:36.572Z,65.63
2023-05-08T07:41:05.108Z,65.60
2023-05-08T07:43:32.063Z,65.72
2023-05-08T07:45:59.143Z,65.43
2023-05-08T07:48:25.895Z,65.13
2023-05-08T07:50:52.398Z,65.04
2023-05-08T07:53:18.915Z,65.09
2023-05-08T07:55:45.446Z,65.09
2023-05-08T07:58:12.020Z,65.67
2023-05-08T08:00:39.623Z,65.87
2023-05-08T08:03:07.072Z,66.42
2023-05-08T08:05:33.691Z,66.53
2023-05-08T08:08:00.355Z,66.10
2023-05-08T08:10:27.140Z,66.82
2023-05-08T08:12:53.938Z,66.83
2023-05-08T08:15:20.708Z,66.70
2023-05-08T08:17:47.286Z,66.27
2023-05-08T08:20:14.370Z,66.15
2023-05-08T08:22:41.076Z,66.07
2023-05-08T08:25:08.348Z,66.84
2023-05-08T08:27:34.807Z,67.07
2023-05-08T08:30:12.782Z,66.84
2023-05-08T08:32:43.222Z,66.98
2023-05-08T08:35:10.068Z,66.57
2023-05-08T08:37:36.598Z,66.49
2023-05-08T08:40:03.822Z,65.85
2023-05-08T08:42:31.602Z,65.61
2023-05-08T08:44:58.331Z,65.17
2023-05-08T08:47:29.791Z,64.81
2023-05-08T08:50:03.165Z,64.71
2023-05-08T08:52:54.536Z,64.21
2023-05-08T08:55:23.399Z,64.52
2023-05-08T08:58:33.292Z,64.37
2023-05-08T09:01:00.924Z,64.39
2023-05-08T09:03:27.784Z,64.29
2023-05-08T09:05:55.192Z,64.46
2023-05-08T09:08:21.666Z,64.55
2023-05-08T09:10:48.398Z,64.82
2023-05-08T09:13:15.555Z,64.69
2023-05-08T09:15:43.151Z,64.43
2023-05-08T09:18:09.739Z,64.23
2023-05-08T09:20:36.780Z,63.90
2023-05-08T09:23:03.532Z,63.79
2023-05-08T09:25:44.632Z,63.52
2023-05-08T09:28:25.625Z,63.48
2023-05-08T09:31:02.440Z,63.76
2023-05-08T09:33:29.922Z,64.05
2023-05-08T09:35:57.537Z,63.85
2023-05-08T09:38:41.913Z,63.32
2023-05-08T09:41:15.271Z,63.74
2023-05-08T09:43:44.113Z,62.98
2023-05-08T09:46:21.088Z,62.44
2023-05-08T09:48:48.904Z,64.19
2023-05-08T09:51:15.646Z,64.34
2023-05-08T09:53:42.213Z,64.44
2023-05-08T09:56:08.681Z,63.92
2023-05-08T09:58:44.460Z,63.88
2023-05-08T10:01:36.632Z,64.12
2023-05-08T10:04:04.129Z,64.12
2023-05-08T10:06:30.772Z,64.29
2023-05-08T10:09:14.865Z,64.08
2023-05-08T10:11:52.738Z,64.17
2023-05-08T10:14:20.860Z,63.74
2023-05-08T10:16:51.764Z,62.94
2023-05-08T10:19:22.194Z,62.70
2023-05-08T10:21:53.915Z,62.78
2023-05-08T10:24:32.697Z,62.86
2023-05-08T10:27:20.404Z,63.06
2023-05-08T10:29:56.109Z,62.73
2023-05-08T10:32:24.590Z,62.81
2023-05-08T10:34:59.878Z,61.79
2023-05-08T10:37:30.217Z,61.71
2023-05-08T10:39:58.744Z,61.34
2023-05-08T10:42:27.602Z,61.76
2023-05-08T10:44:54.924Z,62.12
2023-05-08T10:47:51.208Z,61.88
2023-05-08T10:51:14.144Z,61.80
2023-05-08T10:53:52.335Z,61.17
2023-05-08T10:56:27.251Z,60.57
2023-05-08T10:58:58.702Z,60.52
2023-05-08T11:01:26.826Z,60.90
2023-05-08T11:03:55.924Z,60.54
2023-05-08T11:06:43.956Z,60.76
2023-05-08T11:09:20.013Z,60.52
2023-05-08T11:12:28.566Z,60.21
2023-05-08T11:15:06.899Z,60.03
2023-05-08T11:17:34.387Z,59.89
2023-05-08T11:20:06.849Z,59.84
2023-05-08T11:22:35.199Z,59.64
2023-05-08T11:25:08.632Z,59.21
2023-05-08T11:27:39.378Z,59.28
2023-05-08T11:30:34.637Z,59.39
2023-05-08T11:33:04.542Z,58.86
2023-05-08T11:35:43.935Z,59.34
2023-05-08T11:38:29.547Z,59.26
2023-05-08T11:41:11.176Z,59.33
2023-05-08T11:44:02.665Z,58.19
2023-05-08T11:46:49.899Z,58.37
2023-05-08T11:49:19.653Z,58.44
2023-05-08T11:51:58.021Z,57.99
2023-05-08T11:54:30.747Z,57.83
2023-05-08T11:56:57.719Z,57.51
2023-05-08T11:59:24.307Z,57.55
2023-05-08T12:04:22.077Z,56.96
2023-05-08T12:06:51.244Z,57.18
2023-05-08T12:09:18.982Z,56.95
2023-05-08T12:11:45.526Z,56.92
2023-05-08T12:14:14.942Z,57.35
2023-05-08T12:16:43.935Z,57.02
2023-05-08T12:19:13.052Z,55.55
2023-05-08T12:21:47.594Z,55.50
2023-05-08T12:24:16.331Z,55.73
2023-05-08T12:26:42.866Z,55.17
2023-05-08T12:29:09.433Z,55.44
2023-05-08T12:31:36.654Z,55.71
2023-05-08T12:34:05.864Z,55.63
2023-05-08T12:36:36.340Z,55.65
2023-05-08T12:39:11.259Z,55.38
2023-05-08T12:41:48.661Z,54.25
2023-05-08T12:44:26.285Z,54.09
2023-05-08T12:46:56.147Z,54.90
2023-05-08T12:49:28.936Z,54.73
2023-05-08T12:52:23.487Z,55.54
2023-05-08T12:54:49.995Z,55.76
2023-05-08T12:57:19.696Z,55.66
2023-05-08T12:59:46.822Z,55.61
2023-05-08T13:02:23.701Z,55.22
2023-05-08T13:04:58.270Z,55.24
2023-05-08T13:07:24.890Z,53.79
2023-05-08T13:10:04.336Z,52.96
2023-05-08T13:12:31.623Z,53.90
2023-05-08T13:14:58.092Z,54.26
2023-05-08T13:17:24.569Z,53.73
2023-05-08T13:19:51.108Z,53.79
2023-05-08T13:22:17.606Z,53.75
2023-05-08T13:24:44.093Z,53.66
2023-05-08T13:27:10.604Z,53.40
2023-05-08T13:29:37.099Z,53.47
2023-05-08T13:32:03.716Z,53.36
2023-05-08T13:34:30.250Z,53.25
2023-05-08T13:36:56.976Z,53.27
2023-05-08T13:39:23.440Z,52.32
2023-05-08T13:41:49.879Z,51.60
2023-05-08T13:44:16.368Z,51.89
2023-05-08T13:46:42.830Z,52.13
2023-05-08T13:49:09.320Z,51.53
2023-05-08T13:51:35.780Z,50.35
2023-05-08T13:54:02.286Z,50.29
2023-05-08T13:56:28.831Z,50.32
2023-05-08T13:58:55.297Z,50.52
2023-05-08T14:01:26.505Z,50.90
2023-05-08T14:03:55.164Z,50.55
2023-05-08T14:06:21.873Z,49.60
2023-05-08T14:08:50.937Z,49.93
2023-05-08T14:11:18.752Z,50.91
2023-05-08T14:13:45.195Z,50.63
2023-05-08T14:16:14.194Z,50.03
2023-05-08T14:18:40.903Z,50.42
2023-05-08T14:21:07.422Z,50.57
2023-05-08T14:23:35.460Z,50.80
2023-05-08T14:26:01.920Z,50.54
2023-05-08T14:28:29.396Z,50.34
2023-05-08T14:30:56.117Z,50.14
2023-05-08T14:33:22.724Z,50.20
2023-05-08T14:35:49.170Z,50.14
2023-05-08T14:38:15.757Z,50.62
2023-05-08T14:40:42.210Z,50.28
2023-05-08T14:43:08.726Z,50.35
2023-05-08T14:45:35.783Z,50.58
2023-05-08T14:48:02.286Z,50.88
2023-05-08T14:50:28.845Z,50.10
2023-05-08T14:52:55.544Z,49.41
2023-05-08T14:55:22.546Z,49.12
2023-05-08T14:57:49.978Z,49.75
2023-05-08T15:00:17.872Z,51.00
2023-05-08T15:02:45.180Z,50.31
2023-05-08T15:05:19.143Z,49.87
2023-05-08T15:07:47.130Z,50.42
2023-05-08T15:10:13.744Z,50.58
2023-05-08T15:12:40.234Z,50.39
2023-05-08T15:15:07.385Z,50.27
2023-05-08T15:17:36.819Z,50.39
2023-05-08T15:20:04.267Z,50.12
2023-05-08T15:22:31.250Z,49.65
2023-05-08T15:25:02.685Z,50.12
2023-05-08T15:27:30.227Z,49.41
2023-05-08T15:29:57.197Z,48.60
2023-05-08T15:32:24.471Z,49.75
2023-05-08T15:34:51.148Z,50.20
2023-05-08T15:37:17.674Z,50.93
2023-05-08T15:39:44.262Z,50.60
2023-05-08T15:42:10.824Z,49.52
2023-05-08T15:44:54.191Z,49.85
2023-05-08T15:47:23.096Z,50.15
2023-05-08T15:49:54.004Z,51.12
2023-05-08T15:52:21.009Z,51.31
2023-05-08T15:54:48.427Z,50.96
2023-05-08T15:57:15.227Z,51.42
2023-05-08T15:59:42.023Z,52.14
2023-05-08T16:02:09.269Z,52.48
2023-05-08T16:04:36.620Z,52.46
2023-05-08T16:07:03.178Z,51.50
2023-05-08T16:09:29.686Z,50.93
2023-05-08T16:11:56.264Z,51.94
2023-05-08T16:14:22.736Z,53.43
2023-05-08T16:16:49.214Z,54.22
2023-05-08T16:19:16.252Z,54.07
2023-05-08T16:21:46.996Z,54.03
2023-05-08T16:24:14.234Z,53.95
2023-05-08T16:26:40.753Z,53.23
2023-05-08T16:29:07.304Z,52.93
2023-05-08T16:31:34.027Z,52.84
2023-05-08T16:34:00.681Z,52.87
2023-05-08T16:36:27.604Z,53.28
2023-05-08T16:38:54.175Z,53.87
2023-05-08T16:41:21.394Z,53.43
2023-05-08T16:43:47.928Z,53.20
2023-05-08T16:46:14.480Z,53.06
2023-05-08T16:48:42.181Z,53.56
2023-05-08T16:51:08.666Z,53.55
2023-05-08T16:53:35.102Z,53.33
2023-05-08T16:56:01.598Z,53.79
2023-05-08T16:58:28.107Z,53.86
2023-05-08T17:00:54.801Z,53.73
2023-05-08T17:03:21.395Z,54.23
2023-05-08T17:05:47.912Z,54.49
2023-05-08T17:08:14.508Z,54.25
2023-05-08T17:10:41.362Z,53.86
2023-05-08T17:13:07.909Z,53.86
2023-05-08T17:15:34.433Z,53.87
2023-05-08T17:18:00.982Z,54.07
2023-05-08T17:20:27.616Z,53.73
2023-05-08T17:22:54.203Z,53.87
2023-05-08T17:25:22.344Z,53.64
2023-05-08T17:27:48.984Z,54.02
2023-05-08T17:30:16.907Z,54.70
2023-05-08T17:32:43.677Z,55.15
2023-05-08T17:35:10.316Z,55.31
2023-05-08T17:37:36.948Z,55.70
2023-05-08T17:40:03.843Z,55.30
2023-05-08T17:42:30.415Z,55.06
2023-05-08T17:44:57.092Z,55.77
2023-05-08T17:47:23.745Z,56.29
2023-05-08T17:49:50.569Z,57.15
2023-05-08T17:52:17.076Z,57.76
2023-05-08T17:54:43.567Z,58.01
2023-05-08T17:57:10.028Z,58.42
2023-05-08T17:59:36.525Z,59.02
2023-05-08T18:02:03.094Z,59.00
2023-05-08T18:04:29.594Z,59.23
2023-05-08T18:06:56.131Z,59.63
2023-05-08T18:09:22.631Z,60.21
2023-05-08T18:11:49.072Z,60.11
2023-05-08T18:14:15.627Z,59.94
2023-05-08T18:16:42.124Z,60.39
2023-05-08T18:19:08.838Z,60.61
2023-05-08T18:21:35.366Z,60.83
2023-05-08T18:24:02.043Z,60.98
2023-05-08T18:26:28.485Z,61.18
2023-05-08T18:28:55.072Z,61.31
2023-05-08T18:31:21.648Z,61.68
2023-05-08T18:33:48.214Z,61.20
2023-05-08T18:36:14.750Z,60.53
2023-05-08T18:38:41.721Z,60.90
2023-05-08T18:41:08.397Z,61.04
2023-05-08T18:43:35.017Z,61.37
2023-05-08T18:46:12.400Z,61.25
2023-05-08T18:48:40.542Z,60.63
2023-05-08T18:51:07.039Z,60.37
2023-05-08T18:53:34.884Z,60.60
2023-05-08T18:56:04.080Z,60.44
2023-05-08T18:58:31.384Z,60.38
2023-05-08T19:00:59.111Z,60.41
2023-05-08T19:03:26.125Z,60.29
2023-05-08T19:05:55.009Z,60.43
2023-05-08T19:08:21.574Z,60.37
2023-05-08T19:10:48.121Z,60.86
2023-05-08T19:13:14.836Z,61.45
2023-05-08T19:15:41.554Z,61.73
2023-05-08T19:18:08.910Z,62.30
2023-05-08T19:20:35.589Z,62.59
2023-05-08T19:23:02.075Z,63.14
2023-05-08T19:25:28.585Z,63.45
2023-05-08T19:27:55.350Z,63.50
2023-05-08T19:30:22.081Z,63.62
2023-05-08T19:32:49.773Z,63.84
2023-05-08T19:35:16.367Z,63.71
2023-05-08T19:37:42.863Z,63.85
2023-05-08T19:40:10.332Z,64.07
2023-05-08T19:42:36.842Z,64.28
2023-05-08T19:45:03.952Z,64.33
2023-05-08T19:47:30.497Z,64.01
2023-05-08T19:49:57.016Z,63.85
2023-05-08T19:52:23.553Z,63.72
2023-05-08T19:54:50.058Z,63.79
2023-05-08T19:57:16.687Z,64.35
2023-05-08T19:59:43.142Z,64.99
2023-05-08T20:02:09.603Z,65.43
2023-05-08T20:04:51.875Z,65.89
2023-05-08T20:07:22.727Z,66.05
2023-05-08T20:09:49.211Z,65.42
2023-05-08T20:12:15.730Z,65.25
2023-05-08T20:14:42.185Z,65.46
2023-05-08T20:17:08.831Z,65.79
2023-05-08T20:19:35.541Z,65.89
2023-05-08T20:22:02.121Z,65.63
2023-05-08T20:24:28.702Z,65.46
2023-05-08T20:26:56.216Z,65.67
2023-05-08T20:29:24.143Z,65.74
2023-05-08T20:31:52.148Z,66.25
2023-05-08T20:34:21.760Z,66.01
2023-05-08T20:36:48.595Z,65.45
2023-05-08T20:39:15.208Z,65.33
2023-05-08T20:41:41.749Z,65.33
2023-05-08T20:44:08.250Z,65.33
2023-05-08T20:46:34.733Z,65.46
2023-05-08T20:49:03.684Z,65.32
2023-05-08T20:51:31.813Z,65.50
2023-05-08T20:53:58.440Z,65.44
2023-05-08T20:56:25.482Z,66.31
2023-05-08T20:58:51.962Z,66.65
2023-05-08T21:01:20.633Z,66.76
2023-05-08T21:03:48.026Z,66.50
2023-05-08T21:06:14.584Z,66.80
2023-05-08T21:08:41.225Z,67.13
2023-05-08T21:11:07.733Z,67.29
2023-05-08T21:13:34.239Z,67.18
2023-05-08T21:16:00.819Z,67.48
2023-05-08T21:18:27.375Z,67.42
2023-05-08T21:20:53.950Z,67.41
2023-05-08T21:23:20.865Z,66.88
2023-05-08T21:25:49.425Z,67.21
2023-05-08T21:28:17.070Z,67.16
2023-05-08T21:30:45.871Z,67.15
2023-05-08T21:33:13.895Z,66.77
2023-05-08T21:35:41.779Z,66.25
2023-05-08T21:38:09.147Z,66.27
2023-05-08T21:40:35.706Z,66.50
2023-05-08T21:43:02.212Z,66.63
2023-05-08T21:45:32.752Z,66.88
2023-05-08T21:48:00.442Z,67.50
2023-05-08T21:50:30.046Z,67.59
2023-05-08T21:52:56.621Z,68.05
2023-05-08T21:55:23.866Z,68.24
2023-05-08T21:57:50.853Z,67.95
2023-05-08T22:00:18.000Z,67.85
2023-05-08T22:02:44.591Z,67.83
2023-05-08T22:05:11.406Z,67.89
2023-05-08T22:07:38.099Z,68.07
2023-05-08T22:10:05.552Z,67.46
2023-05-08T22:12:32.005Z,66.97
2023-05-08T22:14:58.486Z,67.34
2023-05-08T22:17:25.074Z,67.12
2023-05-08T22:19:51.599Z,66.90
2023-05-08T22:22:18.061Z,67.07
2023-05-08T22:24:44.569Z,67.08
2023-05-08T22:27:11.132Z,66.97
2023-05-08T22:29:37.642Z,66.61
2023-05-08T22:32:04.606Z,66.37
2023-05-08T22:34:31.428Z,66.57
2023-05-08T22:37:00.117Z,66.73
2023-05-08T22:39:26.549Z,66.74
2023-05-08T22:41:54.309Z,66.52
2023-05-08T22:44:21.050Z,66.29
2023-05-08T22:46:47.826Z,66.38
2023-05-08T22:49:14.491Z,65.97
2023-05-08T22:51:41.299Z,66.74
2023-05-08T22:54:08.017Z,66.50
2023-05-08T22:56:35.586Z,66.62
2023-05-08T22:59:02.064Z,66.33
2023-05-08T23:01:28.575Z,65.91
2023-05-08T23:03:58.774Z,66.08
2023-05-08T23:06:25.262Z,66.34
2023-05-08T23:08:51.752Z,66.33
2023-05-08T23:11:18.211Z,66.40
2023-05-08T23:13:44.678Z,66.74
2023-05-08T23:16:11.218Z,66.40
2023-05-08T23:18:37.761Z,66.31
2023-05-08T23:21:06.355Z,65.88
2023-05-08T23:23:33.922Z,65.90
2023-05-08T23:26:04.451Z,65.76
2023-05-08T23:28:33.297Z,65.73
2023-05-08T23:31:00.446Z,66.51
2023-05-08T23:33:27.050Z,66.07
2023-05-08T23:35:58.545Z,66.12
2023-05-08T23:38:25.710Z,66.30
2023-05-08T23:40:52.297Z,66.21
2023-05-08T23:43:18.914Z,66.35
2023-05-08T23:45:45.594Z,66.85
2023-05-08T23:48:12.115Z,67.17
2023-05-08T23:50:38.867Z,67.39
2023-05-08T23:53:05.401Z,67.26
2023-05-08T23:55:31.897Z,67.49
2023-05-08T23:57:58.336Z,67.39
